WEATHER/FLIGHT PLANNING

Hattiesburg Radar

 

 

 

 

Weather Links

Flight Planning Links

 

METAR

2016/02/08 20:53 KHBG 082053Z AUTO 31015G29KT 10SM SCT085 13/M07 A2996 RMK AO2 PK WND 29030/2024 SLP145 T01331067 56018

TAF

2016/02/08 18:21 TAF KHBG 081720Z 0818/0918 30019G23KT P6SM FEW070 FM082000 30016G24KT P6SM OVC100 FM090000 28010KT P6SM BKN050 FM091400 30013G20KT P6SM SKC